Aérodrome :
LOGIN :

S'inscrire | Disclaimer

   EN    FR    IT 

 










Légende :    VFR   VFR Marginal   IFR   IFR Intensif   IFR Très Intensif
Visi : 
Plafond : 
>= 8 km
>= 3000ft
5 à 8 km
1000 à 3000 ft
1500m à 5 km
500 à 1000 ft
800 à 1500m
200 à 500 ft
< 800m
< 200 ft
Symboles :   Orages  Brouillard  Fortes neiges  Fortes précipitations  Vent > 20 kt
SIGMETs :   Divers  Orages  Givrage  Turbulence  Onde Orograph.  Cendres Volcan.






- Altitude de l'aérodrome : 297 ft
- Code IATA : UIP


LFRQ - Quimper Pluguffan

DERNIER METAR :
  • 021430Z AUTO 14008KT 110V170 9999 -RA FEW016 BKN064 OVC074 12/09 Q1024 BECMG BKN006

METARs EXPIRÉS :
  • 021400Z AUTO 14008KT 110V170 9999 -RA NSC 12/09 Q1024 NOSIG
  • 021330Z AUTO 14009KT 100V170 9999 FEW015 BKN066 OVC078 12/09 Q1024 NOSIG
  • 021300Z AUTO 14010KT 100V170 CAVOK 12/09 Q1024 NOSIG
  • 021230Z AUTO 14008KT CAVOK 12/09 Q1024 NOSIG
  • 021200Z AUTO 14010KT CAVOK 12/09 Q1024 NOSIG

TAF TAF LFRQ
Valide du 02 à 12h jusqu'au 03 à 12h UTC


021100Z 0212/0312 13010KT CAVOK
BECMG 0216/0218 BKN006
BECMG 0218/0220 4000 BR
TEMPO 0220/0303 1200 BR OVC002
PROB40
TEMPO 0220/0303 -SHRA BKN006 SCT040TCU
BECMG 0301/0304 19010KT 9999 SCT010 BKN016



MET'MAP, la Météo Aéronautique d'un coup d'oeil ! - Copyright ORBIFLY Décembre 2007 - Disclaimer

ORBIFLY MET'MAP TEAM :

Programmation & Développement : Alexandra Zaïnal
Sur une idée originale de : Baudouin d'Aumeries
Assistance à la programmation : Marc-Olivier Méhu
Soutien technique & logistique : Manuel Goepfert

Contact : metmap@orbifly.com




SOURCES & CREDITS :

   NOAA